sensor_id;sensor_type;location;lat;lon;timestamp;P1;durP1;ratioP1;P2;durP2;ratioP2
54539;SDS011;40438;52.992;18.604;2024-03-08T00:00:10;24.50;;;9.02;;
54539;SDS011;40438;52.992;18.604;2024-03-08T00:02:38;26.63;;;10.20;;
54539;SDS011;40438;52.992;18.604;2024-03-08T00:05:04;15.77;;;8.88;;
54539;SDS011;40438;52.992;18.604;2024-03-08T00:07:31;31.20;;;10.60;;
54539;SDS011;40438;52.992;18.604;2024-03-08T00:09:58;22.48;;;9.18;;
54539;SDS011;40438;52.992;18.604;2024-03-08T00:12:24;31.50;;;10.38;;
54539;SDS011;40438;52.992;18.604;2024-03-08T00:14:49;30.02;;;10.10;;
54539;SDS011;40438;52.992;18.604;2024-03-08T00:17:15;28.83;;;10.25;;
54539;SDS011;40438;52.992;18.604;2024-03-08T00:19:41;24.45;;;9.65;;
54539;SDS011;40438;52.992;18.604;2024-03-08T00:22:07;24.65;;;10.45;;
54539;SDS011;40438;52.992;18.604;2024-03-08T00:24:33;24.17;;;10.93;;
54539;SDS011;40438;52.992;18.604;2024-03-08T00:27:00;24.77;;;9.35;;
54539;SDS011;40438;52.992;18.604;2024-03-08T00:29:26;24.02;;;9.80;;
54539;SDS011;40438;52.992;18.604;2024-03-08T00:31:52;26.70;;;9.40;;
54539;SDS011;40438;52.992;18.604;2024-03-08T00:34:17;28.05;;;10.30;;
54539;SDS011;40438;52.992;18.604;2024-03-08T00:36:43;24.42;;;11.40;;
54539;SDS011;40438;52.992;18.604;2024-03-08T00:39:09;33.47;;;12.95;;
54539;SDS011;40438;52.992;18.604;2024-03-08T00:41:35;31.27;;;11.32;;
54539;SDS011;40438;52.992;18.604;2024-03-08T00:44:02;32.17;;;11.05;;
54539;SDS011;40438;52.992;18.604;2024-03-08T00:46:28;30.25;;;11.38;;
54539;SDS011;40438;52.992;18.604;2024-03-08T00:48:54;31.85;;;12.43;;
54539;SDS011;40438;52.992;18.604;2024-03-08T00:51:20;27.20;;;11.23;;
54539;SDS011;40438;52.992;18.604;2024-03-08T00:53:45;29.27;;;12.23;;
54539;SDS011;40438;52.992;18.604;2024-03-08T00:56:11;20.90;;;11.27;;
54539;SDS011;40438;52.992;18.604;2024-03-08T00:58:37;24.98;;;10.57;;
54539;SDS011;40438;52.992;18.604;2024-03-08T01:01:04;29.42;;;10.55;;
54539;SDS011;40438;52.992;18.604;2024-03-08T01:03:30;37.30;;;10.05;;
54539;SDS011;40438;52.992;18.604;2024-03-08T01:05:56;35.55;;;10.80;;
54539;SDS011;40438;52.992;18.604;2024-03-08T01:08:22;33.45;;;11.25;;
54539;SDS011;40438;52.992;18.604;2024-03-08T01:10:48;35.00;;;10.85;;
54539;SDS011;40438;52.992;18.604;2024-03-08T01:13:13;39.28;;;12.32;;
54539;SDS011;40438;52.992;18.604;2024-03-08T01:15:39;27.42;;;12.32;;
54539;SDS011;40438;52.992;18.604;2024-03-08T01:18:06;30.10;;;11.25;;
54539;SDS011;40438;52.992;18.604;2024-03-08T01:20:32;34.95;;;13.35;;
54539;SDS011;40438;52.992;18.604;2024-03-08T01:22:58;39.10;;;12.00;;
54539;SDS011;40438;52.992;18.604;2024-03-08T01:25:24;33.10;;;11.18;;
54539;SDS011;40438;52.992;18.604;2024-03-08T01:27:49;37.30;;;11.18;;
54539;SDS011;40438;52.992;18.604;2024-03-08T01:30:15;28.67;;;11.18;;
54539;SDS011;40438;52.992;18.604;2024-03-08T01:32:41;34.83;;;11.77;;
54539;SDS011;40438;52.992;18.604;2024-03-08T01:35:09;26.63;;;11.18;;
54539;SDS011;40438;52.992;18.604;2024-03-08T01:37:35;26.08;;;10.10;;
54539;SDS011;40438;52.992;18.604;2024-03-08T01:40:03;33.08;;;11.63;;
54539;SDS011;40438;52.992;18.604;2024-03-08T01:42:30;35.13;;;11.00;;
54539;SDS011;40438;52.992;18.604;2024-03-08T01:44:56;24.33;;;10.82;;
54539;SDS011;40438;52.992;18.604;2024-03-08T01:47:21;36.30;;;14.63;;
54539;SDS011;40438;52.992;18.604;2024-03-08T01:49:47;45.72;;;14.98;;
54539;SDS011;40438;52.992;18.604;2024-03-08T01:52:15;35.22;;;13.20;;
54539;SDS011;40438;52.992;18.604;2024-03-08T01:54:41;49.53;;;16.92;;
54539;SDS011;40438;52.992;18.604;2024-03-08T01:57:07;34.65;;;16.42;;
54539;SDS011;40438;52.992;18.604;2024-03-08T01:59:33;28.10;;;12.10;;
54539;SDS011;40438;52.992;18.604;2024-03-08T02:02:00;30.17;;;13.23;;
54539;SDS011;40438;52.992;18.604;2024-03-08T02:04:27;32.55;;;12.20;;
54539;SDS011;40438;52.992;18.604;2024-03-08T02:06:54;21.75;;;9.55;;
54539;SDS011;40438;52.992;18.604;2024-03-08T02:09:21;29.42;;;11.50;;
54539;SDS011;40438;52.992;18.604;2024-03-08T02:11:47;24.70;;;9.70;;
54539;SDS011;40438;52.992;18.604;2024-03-08T02:14:13;28.30;;;10.55;;
54539;SDS011;40438;52.992;18.604;2024-03-08T02:16:39;39.72;;;14.65;;
54539;SDS011;40438;52.992;18.604;2024-03-08T02:19:05;41.47;;;15.82;;
54539;SDS011;40438;52.992;18.604;2024-03-08T02:21:32;35.65;;;12.70;;
54539;SDS011;40438;52.992;18.604;2024-03-08T02:23:58;30.85;;;13.23;;
54539;SDS011;40438;52.992;18.604;2024-03-08T02:26:24;26.33;;;11.55;;
54539;SDS011;40438;52.992;18.604;2024-03-08T02:28:50;31.38;;;11.20;;
54539;SDS011;40438;52.992;18.604;2024-03-08T02:31:15;25.75;;;10.32;;
54539;SDS011;40438;52.992;18.604;2024-03-08T02:33:41;31.70;;;10.77;;
54539;SDS011;40438;52.992;18.604;2024-03-08T02:36:07;29.73;;;9.80;;
54539;SDS011;40438;52.992;18.604;2024-03-08T02:38:35;32.58;;;12.95;;
54539;SDS011;40438;52.992;18.604;2024-03-08T02:41:01;41.80;;;15.75;;
54539;SDS011;40438;52.992;18.604;2024-03-08T02:43:26;45.47;;;13.63;;
54539;SDS011;40438;52.992;18.604;2024-03-08T02:45:52;27.98;;;11.90;;
54539;SDS011;40438;52.992;18.604;2024-03-08T02:48:18;32.55;;;12.43;;
54539;SDS011;40438;52.992;18.604;2024-03-08T02:50:44;27.48;;;10.40;;
54539;SDS011;40438;52.992;18.604;2024-03-08T02:53:10;28.90;;;10.30;;
54539;SDS011;40438;52.992;18.604;2024-03-08T02:55:38;32.55;;;10.23;;
54539;SDS011;40438;52.992;18.604;2024-03-08T02:58:04;33.35;;;10.98;;
54539;SDS011;40438;52.992;18.604;2024-03-08T03:00:30;37.75;;;11.40;;
54539;SDS011;40438;52.992;18.604;2024-03-08T03:02:56;26.48;;;9.70;;
54539;SDS011;40438;52.992;18.604;2024-03-08T03:05:22;30.67;;;10.55;;
54539;SDS011;40438;52.992;18.604;2024-03-08T03:07:48;29.58;;;10.25;;
54539;SDS011;40438;52.992;18.604;2024-03-08T03:10:15;21.48;;;9.25;;
54539;SDS011;40438;52.992;18.604;2024-03-08T03:12:43;28.95;;;9.88;;
54539;SDS011;40438;52.992;18.604;2024-03-08T03:15:10;27.67;;;10.35;;
54539;SDS011;40438;52.992;18.604;2024-03-08T03:17:36;27.63;;;10.43;;
54539;SDS011;40438;52.992;18.604;2024-03-08T03:20:04;19.67;;;10.35;;
54539;SDS011;40438;52.992;18.604;2024-03-08T03:22:30;35.33;;;9.68;;
54539;SDS011;40438;52.992;18.604;2024-03-08T03:24:56;23.55;;;9.25;;
54539;SDS011;40438;52.992;18.604;2024-03-08T03:27:22;26.10;;;9.10;;
54539;SDS011;40438;52.992;18.604;2024-03-08T03:29:49;35.00;;;11.10;;
54539;SDS011;40438;52.992;18.604;2024-03-08T03:32:15;26.45;;;13.05;;
54539;SDS011;40438;52.992;18.604;2024-03-08T03:34:41;30.90;;;11.18;;
54539;SDS011;40438;52.992;18.604;2024-03-08T03:37:06;32.30;;;10.77;;
54539;SDS011;40438;52.992;18.604;2024-03-08T03:39:32;31.85;;;11.90;;
54539;SDS011;40438;52.992;18.604;2024-03-08T03:41:58;40.80;;;14.25;;
54539;SDS011;40438;52.992;18.604;2024-03-08T03:44:24;46.67;;;13.40;;
54539;SDS011;40438;52.992;18.604;2024-03-08T03:46:51;30.88;;;11.60;;
54539;SDS011;40438;52.992;18.604;2024-03-08T03:49:17;36.30;;;12.68;;
54539;SDS011;40438;52.992;18.604;2024-03-08T03:51:43;35.78;;;13.75;;
54539;SDS011;40438;52.992;18.604;2024-03-08T03:54:09;29.50;;;12.75;;
54539;SDS011;40438;52.992;18.604;2024-03-08T03:56:35;30.80;;;11.68;;
54539;SDS011;40438;52.992;18.604;2024-03-08T03:59:00;35.53;;;13.02;;
54539;SDS011;40438;52.992;18.604;2024-03-08T04:01:26;43.80;;;12.57;;
54539;SDS011;40438;52.992;18.604;2024-03-08T04:03:53;44.92;;;15.45;;
54539;SDS011;40438;52.992;18.604;2024-03-08T04:06:19;45.72;;;14.43;;
54539;SDS011;40438;52.992;18.604;2024-03-08T04:08:45;45.10;;;14.98;;
54539;SDS011;40438;52.992;18.604;2024-03-08T04:11:11;52.25;;;16.58;;
54539;SDS011;40438;52.992;18.604;2024-03-08T04:13:37;60.70;;;17.95;;
54539;SDS011;40438;52.992;18.604;2024-03-08T04:16:03;47.78;;;15.77;;
54539;SDS011;40438;52.992;18.604;2024-03-08T04:18:29;50.53;;;18.70;;
54539;SDS011;40438;52.992;18.604;2024-03-08T04:20:56;48.55;;;17.58;;
54539;SDS011;40438;52.992;18.604;2024-03-08T04:23:22;42.70;;;16.20;;
54539;SDS011;40438;52.992;18.604;2024-03-08T04:25:48;41.90;;;14.00;;
54539;SDS011;40438;52.992;18.604;2024-03-08T04:28:13;44.17;;;13.52;;
54539;SDS011;40438;52.992;18.604;2024-03-08T04:30:39;28.38;;;11.55;;
54539;SDS011;40438;52.992;18.604;2024-03-08T04:33:05;35.40;;;12.50;;
54539;SDS011;40438;52.992;18.604;2024-03-08T04:35:31;23.25;;;11.43;;
54539;SDS011;40438;52.992;18.604;2024-03-08T04:37:58;31.92;;;12.68;;
54539;SDS011;40438;52.992;18.604;2024-03-08T04:40:24;30.83;;;11.27;;
54539;SDS011;40438;52.992;18.604;2024-03-08T04:42:50;39.35;;;13.10;;
54539;SDS011;40438;52.992;18.604;2024-03-08T04:45:16;32.70;;;10.82;;
54539;SDS011;40438;52.992;18.604;2024-03-08T04:47:42;25.00;;;11.95;;
54539;SDS011;40438;52.992;18.604;2024-03-08T04:50:09;33.90;;;10.77;;
54539;SDS011;40438;52.992;18.604;2024-03-08T04:52:36;31.08;;;9.45;;
54539;SDS011;40438;52.992;18.604;2024-03-08T04:55:06;21.25;;;10.80;;
54539;SDS011;40438;52.992;18.604;2024-03-08T04:57:32;33.95;;;11.55;;
54539;SDS011;40438;52.992;18.604;2024-03-08T04:59:57;22.67;;;11.75;;
54539;SDS011;40438;52.992;18.604;2024-03-08T05:02:23;27.75;;;10.88;;
54539;SDS011;40438;52.992;18.604;2024-03-08T05:04:49;19.77;;;9.55;;
54539;SDS011;40438;52.992;18.604;2024-03-08T05:07:15;29.67;;;12.65;;
54539;SDS011;40438;52.992;18.604;2024-03-08T05:09:40;27.15;;;10.80;;
54539;SDS011;40438;52.992;18.604;2024-03-08T05:12:08;21.45;;;10.52;;
54539;SDS011;40438;52.992;18.604;2024-03-08T05:14:33;25.85;;;13.18;;
54539;SDS011;40438;52.992;18.604;2024-03-08T05:16:59;31.52;;;11.45;;
54539;SDS011;40438;52.992;18.604;2024-03-08T05:19:25;31.20;;;12.80;;
54539;SDS011;40438;52.992;18.604;2024-03-08T05:21:51;33.92;;;13.00;;
54539;SDS011;40438;52.992;18.604;2024-03-08T05:24:17;29.98;;;10.68;;
54539;SDS011;40438;52.992;18.604;2024-03-08T05:26:43;43.70;;;11.90;;
54539;SDS011;40438;52.992;18.604;2024-03-08T05:29:10;35.35;;;11.38;;
54539;SDS011;40438;52.992;18.604;2024-03-08T05:31:46;24.83;;;10.30;;
54539;SDS011;40438;52.992;18.604;2024-03-08T05:34:12;37.55;;;12.60;;
54539;SDS011;40438;52.992;18.604;2024-03-08T05:36:38;42.10;;;14.48;;
54539;SDS011;40438;52.992;18.604;2024-03-08T05:39:04;38.65;;;12.73;;
54539;SDS011;40438;52.992;18.604;2024-03-08T05:41:30;40.50;;;13.73;;
54539;SDS011;40438;52.992;18.604;2024-03-08T05:43:55;35.15;;;14.50;;
54539;SDS011;40438;52.992;18.604;2024-03-08T05:46:23;21.85;;;9.00;;
54539;SDS011;40438;52.992;18.604;2024-03-08T05:48:48;30.60;;;10.75;;
54539;SDS011;40438;52.992;18.604;2024-03-08T05:51:14;26.88;;;11.48;;
54539;SDS011;40438;52.992;18.604;2024-03-08T05:53:40;28.92;;;10.85;;
54539;SDS011;40438;52.992;18.604;2024-03-08T05:56:06;26.35;;;11.35;;
54539;SDS011;40438;52.992;18.604;2024-03-08T05:58:32;24.90;;;10.43;;
54539;SDS011;40438;52.992;18.604;2024-03-08T06:00:57;27.55;;;10.13;;
54539;SDS011;40438;52.992;18.604;2024-03-08T06:03:25;25.73;;;10.45;;
54539;SDS011;40438;52.992;18.604;2024-03-08T06:05:50;23.60;;;9.90;;
54539;SDS011;40438;52.992;18.604;2024-03-08T06:08:16;30.27;;;11.38;;
54539;SDS011;40438;52.992;18.604;2024-03-08T06:10:42;36.22;;;12.00;;
54539;SDS011;40438;52.992;18.604;2024-03-08T06:13:08;38.55;;;14.13;;
54539;SDS011;40438;52.992;18.604;2024-03-08T06:15:33;42.92;;;12.30;;
54539;SDS011;40438;52.992;18.604;2024-03-08T06:17:59;29.20;;;12.32;;
54539;SDS011;40438;52.992;18.604;2024-03-08T06:20:26;40.83;;;11.27;;
54539;SDS011;40438;52.992;18.604;2024-03-08T06:22:52;36.97;;;11.10;;
54539;SDS011;40438;52.992;18.604;2024-03-08T06:25:19;32.22;;;11.25;;
54539;SDS011;40438;52.992;18.604;2024-03-08T06:27:45;24.42;;;10.60;;
54539;SDS011;40438;52.992;18.604;2024-03-08T06:30:11;44.08;;;13.93;;
54539;SDS011;40438;52.992;18.604;2024-03-08T06:32:37;24.65;;;12.68;;
54539;SDS011;40438;52.992;18.604;2024-03-08T06:35:03;22.88;;;9.70;;
54539;SDS011;40438;52.992;18.604;2024-03-08T06:37:31;37.97;;;12.70;;
54539;SDS011;40438;52.992;18.604;2024-03-08T06:39:57;27.02;;;11.70;;
54539;SDS011;40438;52.992;18.604;2024-03-08T06:42:23;27.30;;;10.85;;
54539;SDS011;40438;52.992;18.604;2024-03-08T06:44:48;30.88;;;13.20;;
54539;SDS011;40438;52.992;18.604;2024-03-08T06:47:14;23.85;;;11.73;;
54539;SDS011;40438;52.992;18.604;2024-03-08T06:49:40;26.02;;;12.35;;
54539;SDS011;40438;52.992;18.604;2024-03-08T06:52:06;34.58;;;10.50;;
54539;SDS011;40438;52.992;18.604;2024-03-08T06:54:33;38.42;;;12.90;;
54539;SDS011;40438;52.992;18.604;2024-03-08T06:56:59;29.63;;;11.18;;
54539;SDS011;40438;52.992;18.604;2024-03-08T06:59:25;36.75;;;12.05;;
54539;SDS011;40438;52.992;18.604;2024-03-08T07:01:50;37.05;;;13.75;;
54539;SDS011;40438;52.992;18.604;2024-03-08T07:04:16;36.78;;;14.48;;
54539;SDS011;40438;52.992;18.604;2024-03-08T07:06:42;42.08;;;13.05;;
54539;SDS011;40438;52.992;18.604;2024-03-08T07:09:08;35.25;;;12.52;;
54539;SDS011;40438;52.992;18.604;2024-03-08T07:11:35;29.77;;;11.85;;
54539;SDS011;40438;52.992;18.604;2024-03-08T07:14:01;34.10;;;13.82;;
54539;SDS011;40438;52.992;18.604;2024-03-08T07:16:27;44.80;;;14.95;;
54539;SDS011;40438;52.992;18.604;2024-03-08T07:18:52;36.13;;;13.90;;
54539;SDS011;40438;52.992;18.604;2024-03-08T07:21:18;46.05;;;14.50;;
54539;SDS011;40438;52.992;18.604;2024-03-08T07:23:44;40.78;;;14.35;;
54539;SDS011;40438;52.992;18.604;2024-03-08T07:26:10;37.88;;;16.33;;
54539;SDS011;40438;52.992;18.604;2024-03-08T07:28:37;37.38;;;16.50;;
54539;SDS011;40438;52.992;18.604;2024-03-08T07:31:03;42.00;;;15.48;;
54539;SDS011;40438;52.992;18.604;2024-03-08T07:33:28;36.22;;;15.73;;
54539;SDS011;40438;52.992;18.604;2024-03-08T07:35:54;46.90;;;18.25;;
54539;SDS011;40438;52.992;18.604;2024-03-08T07:38:20;36.83;;;16.33;;
54539;SDS011;40438;52.992;18.604;2024-03-08T07:40:46;40.05;;;15.95;;
54539;SDS011;40438;52.992;18.604;2024-03-08T07:43:12;44.15;;;15.45;;
54539;SDS011;40438;52.992;18.604;2024-03-08T07:45:39;40.75;;;15.73;;
54539;SDS011;40438;52.992;18.604;2024-03-08T07:48:05;41.17;;;17.30;;
54539;SDS011;40438;52.992;18.604;2024-03-08T07:50:32;42.53;;;16.40;;
54539;SDS011;40438;52.992;18.604;2024-03-08T07:52:57;49.78;;;19.00;;
54539;SDS011;40438;52.992;18.604;2024-03-08T07:55:23;47.30;;;17.40;;
54539;SDS011;40438;52.992;18.604;2024-03-08T07:57:49;40.40;;;18.67;;
54539;SDS011;40438;52.992;18.604;2024-03-08T08:00:15;48.58;;;19.02;;
54539;SDS011;40438;52.992;18.604;2024-03-08T08:02:43;40.28;;;17.23;;
54539;SDS011;40438;52.992;18.604;2024-03-08T08:05:09;49.45;;;18.98;;
54539;SDS011;40438;52.992;18.604;2024-03-08T08:07:35;46.60;;;18.58;;
54539;SDS011;40438;52.992;18.604;2024-03-08T08:10:00;45.90;;;18.38;;
54539;SDS011;40438;52.992;18.604;2024-03-08T08:12:26;53.20;;;19.17;;
54539;SDS011;40438;52.992;18.604;2024-03-08T08:14:52;46.33;;;18.77;;
54539;SDS011;40438;52.992;18.604;2024-03-08T08:17:18;51.28;;;21.50;;
54539;SDS011;40438;52.992;18.604;2024-03-08T08:19:45;56.00;;;20.80;;
54539;SDS011;40438;52.992;18.604;2024-03-08T08:22:10;54.88;;;23.50;;
54539;SDS011;40438;52.992;18.604;2024-03-08T08:24:36;56.38;;;22.88;;
54539;SDS011;40438;52.992;18.604;2024-03-08T08:27:02;55.85;;;23.70;;
54539;SDS011;40438;52.992;18.604;2024-03-08T08:29:28;57.60;;;22.23;;
54539;SDS011;40438;52.992;18.604;2024-03-08T08:31:54;55.95;;;23.33;;
54539;SDS011;40438;52.992;18.604;2024-03-08T08:34:20;50.38;;;22.40;;
54539;SDS011;40438;52.992;18.604;2024-03-08T08:36:47;51.38;;;22.42;;
54539;SDS011;40438;52.992;18.604;2024-03-08T08:39:13;59.28;;;22.73;;
54539;SDS011;40438;52.992;18.604;2024-03-08T08:41:38;50.55;;;21.70;;
54539;SDS011;40438;52.992;18.604;2024-03-08T08:44:05;49.75;;;21.13;;
54539;SDS011;40438;52.992;18.604;2024-03-08T08:46:31;46.03;;;20.40;;
54539;SDS011;40438;52.992;18.604;2024-03-08T08:48:56;46.72;;;21.40;;
54539;SDS011;40438;52.992;18.604;2024-03-08T08:51:22;50.53;;;20.45;;
54539;SDS011;40438;52.992;18.604;2024-03-08T08:53:49;41.58;;;19.05;;
54539;SDS011;40438;52.992;18.604;2024-03-08T08:56:15;48.75;;;20.08;;
54539;SDS011;40438;52.992;18.604;2024-03-08T08:58:41;49.45;;;19.20;;
54539;SDS011;40438;52.992;18.604;2024-03-08T09:01:07;48.90;;;20.15;;
54539;SDS011;40438;52.992;18.604;2024-03-08T09:03:33;41.63;;;17.80;;
54539;SDS011;40438;52.992;18.604;2024-03-08T09:05:58;41.63;;;18.15;;
54539;SDS011;40438;52.992;18.604;2024-03-08T09:08:24;45.92;;;18.17;;
54539;SDS011;40438;52.992;18.604;2024-03-08T09:10:52;48.70;;;18.33;;
54539;SDS011;40438;52.992;18.604;2024-03-08T09:13:17;45.50;;;17.52;;
54539;SDS011;40438;52.992;18.604;2024-03-08T09:15:43;56.50;;;18.20;;
54539;SDS011;40438;52.992;18.604;2024-03-08T09:18:09;38.72;;;17.10;;
54539;SDS011;40438;52.992;18.604;2024-03-08T09:20:35;36.08;;;15.85;;
54539;SDS011;40438;52.992;18.604;2024-03-08T09:23:01;30.00;;;14.18;;
54539;SDS011;40438;52.992;18.604;2024-03-08T09:25:26;27.98;;;13.07;;
54539;SDS011;40438;52.992;18.604;2024-03-08T09:27:53;24.08;;;11.68;;
54539;SDS011;40438;52.992;18.604;2024-03-08T09:30:19;40.90;;;12.65;;
54539;SDS011;40438;52.992;18.604;2024-03-08T09:32:45;30.98;;;11.25;;
54539;SDS011;40438;52.992;18.604;2024-03-08T09:35:11;31.55;;;11.13;;
54539;SDS011;40438;52.992;18.604;2024-03-08T09:37:36;25.80;;;9.70;;
54539;SDS011;40438;52.992;18.604;2024-03-08T09:40:02;23.88;;;9.60;;
54539;SDS011;40438;52.992;18.604;2024-03-08T09:42:29;23.05;;;9.60;;
54539;SDS011;40438;52.992;18.604;2024-03-08T09:44:56;21.42;;;9.95;;
54539;SDS011;40438;52.992;18.604;2024-03-08T09:47:23;32.38;;;8.90;;
54539;SDS011;40438;52.992;18.604;2024-03-08T09:49:50;23.17;;;8.90;;
54539;SDS011;40438;52.992;18.604;2024-03-08T09:52:16;28.40;;;8.25;;
54539;SDS011;40438;52.992;18.604;2024-03-08T09:54:43;27.25;;;9.68;;
54539;SDS011;40438;52.992;18.604;2024-03-08T09:57:09;15.90;;;8.13;;
54539;SDS011;40438;52.992;18.604;2024-03-08T09:59:36;19.73;;;8.90;;
54539;SDS011;40438;52.992;18.604;2024-03-08T10:02:03;21.13;;;8.65;;
54539;SDS011;40438;52.992;18.604;2024-03-08T10:04:29;20.45;;;8.60;;
54539;SDS011;40438;52.992;18.604;2024-03-08T10:06:55;19.38;;;9.10;;
54539;SDS011;40438;52.992;18.604;2024-03-08T10:09:21;19.63;;;9.75;;
54539;SDS011;40438;52.992;18.604;2024-03-08T10:11:47;19.67;;;9.15;;
54539;SDS011;40438;52.992;18.604;2024-03-08T10:14:13;17.80;;;8.82;;
54539;SDS011;40438;52.992;18.604;2024-03-08T10:16:38;20.13;;;9.55;;
54539;SDS011;40438;52.992;18.604;2024-03-08T10:19:06;21.25;;;8.90;;
54539;SDS011;40438;52.992;18.604;2024-03-08T10:21:32;16.30;;;8.30;;
54539;SDS011;40438;52.992;18.604;2024-03-08T10:23:58;19.02;;;9.40;;
54539;SDS011;40438;52.992;18.604;2024-03-08T10:26:24;20.42;;;7.80;;
54539;SDS011;40438;52.992;18.604;2024-03-08T10:28:50;20.92;;;8.85;;
54539;SDS011;40438;52.992;18.604;2024-03-08T10:31:17;18.67;;;8.43;;
54539;SDS011;40438;52.992;18.604;2024-03-08T10:33:43;20.80;;;8.18;;
54539;SDS011;40438;52.992;18.604;2024-03-08T10:36:11;17.38;;;7.63;;
54539;SDS011;40438;52.992;18.604;2024-03-08T10:38:39;15.07;;;7.50;;
54539;SDS011;40438;52.992;18.604;2024-03-08T10:41:05;13.18;;;7.75;;
54539;SDS011;40438;52.992;18.604;2024-03-08T10:43:32;16.90;;;7.68;;
54539;SDS011;40438;52.992;18.604;2024-03-08T10:46:10;16.67;;;7.47;;
54539;SDS011;40438;52.992;18.604;2024-03-08T10:48:43;19.00;;;8.02;;
54539;SDS011;40438;52.992;18.604;2024-03-08T10:51:11;19.33;;;7.28;;
54539;SDS011;40438;52.992;18.604;2024-03-08T10:53:38;14.15;;;6.47;;
54539;SDS011;40438;52.992;18.604;2024-03-08T10:56:04;13.85;;;6.38;;
54539;SDS011;40438;52.992;18.604;2024-03-08T10:58:30;12.73;;;6.60;;
54539;SDS011;40438;52.992;18.604;2024-03-08T11:00:56;13.80;;;5.85;;
54539;SDS011;40438;52.992;18.604;2024-03-08T11:06:14;11.80;;;5.72;;
54539;SDS011;40438;52.992;18.604;2024-03-08T11:08:41;11.57;;;5.95;;
54539;SDS011;40438;52.992;18.604;2024-03-08T11:11:13;18.77;;;7.10;;
54539;SDS011;40438;52.992;18.604;2024-03-08T11:13:49;12.90;;;5.13;;
54539;SDS011;40438;52.992;18.604;2024-03-08T11:19:05;12.75;;;5.38;;
54539;SDS011;40438;52.992;18.604;2024-03-08T11:21:33;10.18;;;5.00;;
54539;SDS011;40438;52.992;18.604;2024-03-08T11:23:59;10.10;;;4.97;;
54539;SDS011;40438;52.992;18.604;2024-03-08T11:26:26;10.85;;;4.95;;
54539;SDS011;40438;52.992;18.604;2024-03-08T11:28:51;9.07;;;5.07;;
54539;SDS011;40438;52.992;18.604;2024-03-08T11:31:24;9.10;;;4.70;;
54539;SDS011;40438;52.992;18.604;2024-03-08T11:33:50;12.73;;;5.13;;
54539;SDS011;40438;52.992;18.604;2024-03-08T11:36:20;11.68;;;5.35;;
54539;SDS011;40438;52.992;18.604;2024-03-08T11:38:48;11.80;;;5.57;;
54539;SDS011;40438;52.992;18.604;2024-03-08T11:41:14;9.45;;;4.85;;
54539;SDS011;40438;52.992;18.604;2024-03-08T11:43:39;14.13;;;5.70;;
54539;SDS011;40438;52.992;18.604;2024-03-08T11:46:09;12.80;;;5.63;;
54539;SDS011;40438;52.992;18.604;2024-03-08T11:48:35;10.45;;;5.93;;
54539;SDS011;40438;52.992;18.604;2024-03-08T11:51:01;11.50;;;5.55;;
54539;SDS011;40438;52.992;18.604;2024-03-08T11:53:27;12.25;;;6.20;;
54539;SDS011;40438;52.992;18.604;2024-03-08T11:55:54;15.20;;;7.63;;
54539;SDS011;40438;52.992;18.604;2024-03-08T11:58:20;14.48;;;6.55;;
54539;SDS011;40438;52.992;18.604;2024-03-08T12:00:46;17.98;;;7.70;;
54539;SDS011;40438;52.992;18.604;2024-03-08T12:03:12;13.80;;;7.03;;
54539;SDS011;40438;52.992;18.604;2024-03-08T12:05:38;25.85;;;8.10;;
54539;SDS011;40438;52.992;18.604;2024-03-08T12:08:04;14.55;;;6.13;;
54539;SDS011;40438;52.992;18.604;2024-03-08T12:10:30;12.05;;;5.55;;
54539;SDS011;40438;52.992;18.604;2024-03-08T12:12:58;9.82;;;4.78;;
54539;SDS011;40438;52.992;18.604;2024-03-08T12:15:24;9.65;;;5.15;;
54539;SDS011;40438;52.992;18.604;2024-03-08T12:17:51;10.27;;;4.57;;
54539;SDS011;40438;52.992;18.604;2024-03-08T12:20:18;10.80;;;4.50;;
54539;SDS011;40438;52.992;18.604;2024-03-08T12:22:45;8.90;;;4.30;;
54539;SDS011;40438;52.992;18.604;2024-03-08T12:25:11;10.90;;;4.88;;
54539;SDS011;40438;52.992;18.604;2024-03-08T12:27:37;8.38;;;4.53;;
54539;SDS011;40438;52.992;18.604;2024-03-08T12:30:16;9.55;;;4.60;;
54539;SDS011;40438;52.992;18.604;2024-03-08T12:32:46;8.07;;;4.95;;
54539;SDS011;40438;52.992;18.604;2024-03-08T12:35:13;9.63;;;5.35;;
54539;SDS011;40438;52.992;18.604;2024-03-08T12:37:39;12.15;;;5.28;;
54539;SDS011;40438;52.992;18.604;2024-03-08T12:40:06;10.43;;;5.43;;
54539;SDS011;40438;52.992;18.604;2024-03-08T12:42:34;11.85;;;5.00;;
54539;SDS011;40438;52.992;18.604;2024-03-08T12:45:00;9.23;;;4.35;;
54539;SDS011;40438;52.992;18.604;2024-03-08T12:47:27;9.85;;;5.07;;
54539;SDS011;40438;52.992;18.604;2024-03-08T12:49:52;12.18;;;5.25;;
54539;SDS011;40438;52.992;18.604;2024-03-08T12:52:18;14.88;;;6.20;;
54539;SDS011;40438;52.992;18.604;2024-03-08T12:54:44;12.93;;;6.72;;
54539;SDS011;40438;52.992;18.604;2024-03-08T12:57:10;17.83;;;6.78;;
54539;SDS011;40438;52.992;18.604;2024-03-08T12:59:36;15.40;;;6.65;;
54539;SDS011;40438;52.992;18.604;2024-03-08T13:02:01;16.30;;;7.38;;
54539;SDS011;40438;52.992;18.604;2024-03-08T13:04:29;11.73;;;6.45;;
54539;SDS011;40438;52.992;18.604;2024-03-08T13:06:54;14.20;;;5.85;;
54539;SDS011;40438;52.992;18.604;2024-03-08T13:09:21;13.48;;;6.53;;
54539;SDS011;40438;52.992;18.604;2024-03-08T13:11:47;14.90;;;7.25;;
54539;SDS011;40438;52.992;18.604;2024-03-08T13:14:13;18.55;;;7.57;;
54539;SDS011;40438;52.992;18.604;2024-03-08T13:16:39;16.42;;;7.70;;
54539;SDS011;40438;52.992;18.604;2024-03-08T13:19:05;19.13;;;7.95;;
54539;SDS011;40438;52.992;18.604;2024-03-08T13:21:32;19.45;;;7.85;;
54539;SDS011;40438;52.992;18.604;2024-03-08T13:23:58;21.08;;;7.93;;
54539;SDS011;40438;52.992;18.604;2024-03-08T13:26:23;17.80;;;8.13;;
54539;SDS011;40438;52.992;18.604;2024-03-08T13:28:49;18.95;;;8.43;;
54539;SDS011;40438;52.992;18.604;2024-03-08T13:31:15;16.55;;;8.02;;
54539;SDS011;40438;52.992;18.604;2024-03-08T13:33:41;15.57;;;7.82;;
54539;SDS011;40438;52.992;18.604;2024-03-08T13:36:07;17.95;;;8.30;;
54539;SDS011;40438;52.992;18.604;2024-03-08T13:38:34;18.20;;;8.18;;
54539;SDS011;40438;52.992;18.604;2024-03-08T13:41:00;20.10;;;8.43;;
54539;SDS011;40438;52.992;18.604;2024-03-08T13:43:26;16.58;;;7.55;;
54539;SDS011;40438;52.992;18.604;2024-03-08T13:45:51;16.98;;;8.35;;
54539;SDS011;40438;52.992;18.604;2024-03-08T13:48:17;15.40;;;7.57;;
54539;SDS011;40438;52.992;18.604;2024-03-08T13:50:43;21.08;;;8.48;;
54539;SDS011;40438;52.992;18.604;2024-03-08T13:53:09;20.23;;;8.02;;
54539;SDS011;40438;52.992;18.604;2024-03-08T13:55:36;19.70;;;8.77;;
54539;SDS011;40438;52.992;18.604;2024-03-08T13:58:02;16.38;;;7.70;;
54539;SDS011;40438;52.992;18.604;2024-03-08T14:00:29;15.48;;;7.82;;
54539;SDS011;40438;52.992;18.604;2024-03-08T14:02:54;14.90;;;8.27;;
54539;SDS011;40438;52.992;18.604;2024-03-08T14:05:20;22.05;;;8.38;;
54539;SDS011;40438;52.992;18.604;2024-03-08T14:07:46;15.30;;;7.95;;
54539;SDS011;40438;52.992;18.604;2024-03-08T14:10:12;18.00;;;7.80;;
54539;SDS011;40438;52.992;18.604;2024-03-08T14:12:39;18.85;;;7.72;;